Time;durP1;ratioP1;P1;durP2;ratioP2;P2;SDS_P1;SDS_P2;PMS_P1;PMS_P2;Temp;Humidity;BMP_temperature;BMP_pressure;BME280_temperature;BME280_humidity;BME280_pressure;Samples;Min_cycle;Max_cycle;Signal;HPM_P1;HPM_P2
2022/06/10 00:00:43;;;;;;;13.53;8.47;;;;;;;15.19;74.36;101605.69;5039894;28;20663;-69
2022/06/10 00:03:10;;;;;;;15.27;9.07;;;;;;;15.36;73.93;101601.38;5024047;28;20412;-69
2022/06/10 00:05:39;;;;;;;17.67;8.90;;;;;;;15.51;73.62;101602.31;5021204;28;20394;-68
2022/06/10 00:08:09;;;;;;;10.10;9.13;;;;;;;15.14;74.35;101605.63;5021548;28;20385;-68
2022/06/10 00:10:35;;;;;;;19.90;9.43;;;;;;;15.35;74.36;101604.88;5036829;28;20444;-68
2022/06/10 00:13:01;;;;;;;12.43;9.83;;;;;;;15.29;74.46;101604.88;5021033;28;20403;-69
2022/06/10 00:15:27;;;;;;;9.50;8.53;;;;;;;15.26;74.87;101607.44;5021533;28;20464;-69
2022/06/10 00:17:52;;;;;;;11.33;9.17;;;;;;;15.12;75.26;101612.66;5020803;28;20515;-68
2022/06/10 00:20:20;;;;;;;11.07;9.43;;;;;;;15.13;75.40;101617.91;5021029;28;20392;-68
2022/06/10 00:22:45;;;;;;;11.83;9.27;;;;;;;15.05;75.85;101609.13;5021102;28;20167;-68
2022/06/10 00:25:11;;;;;;;12.37;9.23;;;;;;;15.22;75.55;101605.69;5020803;28;20903;-68
2022/06/10 00:27:37;;;;;;;11.53;8.87;;;;;;;15.21;75.73;101612.69;5020838;28;20167;-69
2022/06/10 00:30:05;;;;;;;17.90;10.63;;;;;;;15.07;76.40;101617.91;5021279;28;20177;-68
2022/06/10 00:32:30;;;;;;;12.03;10.60;;;;;;;14.98;76.32;101617.84;5019822;28;20183;-69
2022/06/10 00:34:55;;;;;;;14.97;9.60;;;;;;;15.18;76.12;101617.06;5020619;28;20762;-69
2022/06/10 00:37:21;;;;;;;11.53;10.03;;;;;;;14.91;76.82;101613.41;5021311;28;20207;-69
2022/06/10 00:39:46;;;;;;;18.80;9.83;;;;;;;15.18;75.78;101617.06;5020828;28;20178;-69
2022/06/10 00:42:12;;;;;;;14.53;11.17;;;;;;;15.01;76.58;101612.59;5020378;28;20191;-69
2022/06/10 00:44:41;;;;;;;13.93;10.23;;;;;;;15.09;75.96;101610.88;5020997;28;20544;-70
2022/06/10 00:47:33;;;;;;;16.70;9.90;;;;;;;14.98;77.09;101617.84;5020400;28;20418;-68
2022/06/10 00:50:04;;;;;;;19.23;10.30;;;;;;;14.88;76.95;101616.03;5020645;28;20388;-68
2022/06/10 00:52:34;;;;;;;17.70;11.30;;;;;;;14.72;77.22;101620.28;5019647;28;20425;-68
2022/06/10 00:55:01;;;;;;;15.10;10.50;;;;;;;15.01;76.98;101617.84;5019542;28;20399;-68
2022/06/10 00:57:30;;;;;;;14.83;10.40;;;;;;;15.04;76.83;101623.09;5019397;28;20425;-68
2022/06/10 01:00:00;;;;;;;15.97;12.23;;;;;;;14.94;77.19;101618.69;5020237;28;20838;-68
2022/06/10 01:02:28;;;;;;;13.30;10.30;;;;;;;14.92;77.07;101617.78;5020276;28;20654;-68
2022/06/10 01:04:57;;;;;;;16.00;9.80;;;;;;;14.95;77.02;101625.69;5020076;28;20782;-68
2022/06/10 01:07:26;;;;;;;20.63;14.17;;;;;;;14.86;77.48;101626.53;5020547;28;20392;-68
2022/06/10 01:09:52;;;;;;;14.73;11.53;;;;;;;14.98;77.26;101629.22;5020075;28;20429;-68
2022/06/10 01:12:36;;;;;;;14.97;10.40;;;;;;;14.69;77.47;101629.03;5018933;28;20392;-68
2022/06/10 01:15:07;;;;;;;15.30;11.03;;;;;;;15.07;76.74;101624.88;5019784;28;20385;-68
2022/06/10 01:17:36;;;;;;;19.63;10.77;;;;;;;14.97;76.64;101621.34;5019627;28;20709;-68
2022/06/10 01:20:20;;;;;;;15.60;10.43;;;;;;;14.72;77.59;101631.69;5019109;28;20396;-68
2022/06/10 01:22:51;;;;;;;17.63;11.73;;;;;;;14.61;78.44;101630.69;5019632;28;20779;-67
2022/06/10 01:25:32;;;;;;;15.40;11.10;;;;;;;14.73;78.21;101628.16;5019854;28;20418;-67
2022/06/10 01:28:06;;;;;;;14.80;11.27;;;;;;;14.72;77.77;101636.03;5019788;28;20401;-68
2022/06/10 01:31:03;;;;;;;13.83;11.17;;;;;;;14.56;78.58;101635.00;5018928;28;20475;-68
2022/06/10 01:33:49;;;;;;;18.93;11.83;;;;;;;14.84;78.68;101630.00;5019847;28;20778;-69
2022/06/10 01:36:28;;;;;;;18.03;11.83;;;;;;;14.84;77.43;101632.63;5018683;28;20471;-66
2022/06/10 01:39:16;;;;;;;17.70;12.20;;;;;;;14.65;78.28;101645.63;5003697;28;20400;-69
2022/06/10 01:41:53;;;;;;;17.07;12.83;;;;;;;14.57;78.54;101632.44;5019450;28;20720;-68
2022/06/10 01:44:34;;;;;;;19.37;11.97;;;;;;;14.47;79.16;101641.94;5018602;28;20834;-68
2022/06/10 01:47:08;;;;;;;22.47;14.10;;;;;;;14.47;78.83;101639.31;5019425;28;20413;-69
2022/06/10 01:49:49;;;;;;;20.47;13.67;;;;;;;14.53;79.47;101643.75;5019462;28;20409;-68
2022/06/10 01:52:19;;;;;;;23.73;13.63;;;;;;;14.62;79.06;101640.31;5018492;28;20394;-69
2022/06/10 01:55:10;;;;;;;18.90;13.57;;;;;;;14.63;78.85;101647.38;5034974;28;20852;-68
2022/06/10 01:57:41;;;;;;;16.40;13.17;;;;;;;14.37;79.44;101647.09;5018460;28;20487;-68
2022/06/10 02:00:12;;;;;;;20.80;13.27;;;;;;;14.54;79.48;101655.13;5018434;28;20407;-68
2022/06/10 02:02:42;;;;;;;21.27;13.23;;;;;;;14.55;79.59;101655.13;5022291;28;20518;-68
2022/06/10 02:05:12;;;;;;;18.77;14.27;;;;;;;14.19;80.03;101651.31;5018324;28;20701;-68
2022/06/10 02:07:43;;;;;;;23.43;13.87;;;;;;;14.32;80.52;101657.56;5018698;28;20392;-68
2022/06/10 02:10:15;;;;;;;21.20;14.23;;;;;;;14.40;80.11;101652.41;5018266;28;20407;-68
2022/06/10 02:12:43;;;;;;;16.93;14.70;;;;;;;14.62;79.92;101650.81;5017964;28;20508;-68
2022/06/10 02:15:20;;;;;;;15.77;14.13;;;;;;;14.49;79.62;101658.59;5018093;28;20522;-68
2022/06/10 02:17:51;;;;;;;23.03;13.83;;;;;;;14.32;80.04;101654.94;5018024;28;20471;-68
2022/06/10 02:20:21;;;;;;;19.27;13.80;;;;;;;14.63;79.36;101660.50;5018023;28;20447;-67
2022/06/10 02:22:48;;;;;;;21.80;14.70;;;;;;;14.60;79.12;101657.78;5017841;28;20400;-67
2022/06/10 02:25:31;;;;;;;19.40;14.70;;;;;;;14.20;80.62;101660.09;5017878;28;20393;-67
2022/06/10 02:27:59;;;;;;;18.57;14.67;;;;;;;14.33;80.51;101664.59;5018645;28;20406;-68
2022/06/10 02:30:44;;;;;;;27.03;14.47;;;;;;;14.40;80.40;101657.66;5017925;28;20404;-67
2022/06/10 02:33:11;;;;;;;18.37;13.47;;;;;;;14.19;80.46;101653.06;5017655;28;20388;-68
2022/06/10 02:35:46;;;;;;;17.03;12.80;;;;;;;14.48;79.85;101656.84;5017708;28;20453;-68
2022/06/10 02:38:15;;;;;;;19.70;13.17;;;;;;;14.24;79.51;101664.50;5018118;28;20819;-68
2022/06/10 02:41:13;;;;;;;18.77;13.30;;;;;;;14.39;79.47;101663.75;5017738;28;20456;-68
2022/06/10 02:43:45;;;;;;;19.80;13.10;;;;;;;14.05;79.85;101666.94;5017881;28;20415;-68
2022/06/10 02:46:25;;;;;;;19.13;13.33;;;;;;;14.23;79.81;101667.97;5017655;28;20404;-68
2022/06/10 02:49:10;;;;;;;15.70;12.90;;;;;;;14.47;79.22;101673.44;5017860;28;20417;-68
2022/06/10 02:51:36;;;;;;;19.30;13.40;;;;;;;14.15;79.41;101673.13;5017547;28;20415;-68
2022/06/10 02:54:05;;;;;;;19.47;13.87;;;;;;;14.11;79.66;101679.22;5018127;28;20421;-68
2022/06/10 02:56:31;;;;;;;19.27;13.27;;;;;;;14.14;80.13;101677.50;5001175;28;20778;-68
2022/06/10 03:02:04;;;;;;;18.03;13.87;;;;;;;14.27;79.46;101672.38;5020548;28;20356;-68
2022/06/10 03:04:29;;;;;;;17.60;13.93;;;;;;;14.36;79.40;101674.22;5018203;28;20707;-68
2022/06/10 03:07:33;;;;;;;20.70;13.67;;;;;;;14.51;78.90;101676.97;5018032;28;20418;-68
2022/06/10 03:10:05;;;;;;;18.43;12.90;;;;;;;14.61;78.04;101681.44;5017321;28;20201;-68
2022/06/10 03:12:41;;;;;;;19.93;14.17;;;;;;;14.60;77.93;101681.41;5017267;28;20392;-69
2022/06/10 03:15:32;;;;;;;21.90;14.20;;;;;;;14.49;78.52;101676.97;5017294;28;20799;-68
2022/06/10 03:18:12;;;;;;;19.50;13.20;;;;;;;14.09;80.11;101681.81;5017500;28;20562;-68
2022/06/10 03:21:04;;;;;;;16.47;13.23;;;;;;;14.51;79.11;101683.97;5018078;28;20427;-69
2022/06/10 03:23:43;;;;;;;21.77;13.50;;;;;;;14.41;78.96;101680.38;5017143;28;20414;-69
2022/06/10 03:26:18;;;;;;;18.93;14.07;;;;;;;14.36;79.49;101679.47;5018093;28;20664;-68
2022/06/10 03:28:52;;;;;;;14.00;12.50;;;;;;;14.34;78.65;101683.81;5017320;28;20650;-68
2022/06/10 03:31:32;;;;;;;17.83;13.07;;;;;;;14.38;78.91;101683.84;5017324;28;20747;-68
2022/06/10 03:34:15;;;;;;;14.53;13.03;;;;;;;14.36;77.65;101685.59;5017218;28;20441;-68
2022/06/10 03:36:42;;;;;;;21.83;12.73;;;;;;;14.96;77.21;101677.34;5021770;28;20444;-68
2022/06/10 03:39:08;;;;;;;20.87;12.43;;;;;;;15.91;73.23;101666.41;5020985;28;20408;-68
2022/06/10 03:41:37;;;;;;;13.60;11.40;;;;;;;16.35;70.41;101672.59;5021572;28;20442;-68
2022/06/10 03:44:08;;;;;;;11.27;10.03;;;;;;;17.12;67.75;101676.97;5021824;28;20421;-68
2022/06/10 03:46:34;;;;;;;10.57;8.93;;;;;;;16.96;67.64;101673.47;5021574;28;20483;-68
2022/06/10 03:49:07;;;;;;;10.00;8.97;;;;;;;18.04;64.35;101667.78;5020733;28;20524;-68
2022/06/10 03:51:33;;;;;;;12.10;8.27;;;;;;;18.52;62.02;101663.03;5020763;28;20537;-68
2022/06/10 03:53:58;;;;;;;10.43;7.70;;;;;;;18.86;60.59;101667.09;5021361;28;20417;-68
2022/06/10 03:56:24;;;;;;;9.10;6.83;;;;;;;19.16;59.62;101668.59;5021831;28;20195;-68
2022/06/10 03:58:50;;;;;;;8.77;7.47;;;;;;;19.11;59.25;101664.25;5021325;28;20175;-68
2022/06/10 04:01:16;;;;;;;10.10;7.23;;;;;;;19.47;58.70;101670.88;5020558;28;20688;-68
2022/06/10 04:03:41;;;;;;;10.47;8.43;;;;;;;20.08;57.39;101673.59;5021483;28;20420;-69
2022/06/10 04:06:06;;;;;;;8.73;7.73;;;;;;;19.09;58.57;101676.59;5021253;28;20529;-69
2022/06/10 04:08:32;;;;;;;9.63;7.80;;;;;;;19.47;57.88;101670.88;5021377;28;20245;-69
2022/06/10 04:10:57;;;;;;;13.50;9.33;;;;;;;20.26;56.33;101669.78;5025559;28;20182;-69
2022/06/10 04:13:23;;;;;;;8.83;7.93;;;;;;;20.38;55.51;101679.31;5039591;28;20232;-69
2022/06/10 04:15:48;;;;;;;13.23;8.30;;;;;;;20.80;54.24;101682.16;5040747;28;20214;-69
2022/06/10 04:18:14;;;;;;;8.83;7.80;;;;;;;20.95;54.01;101688.06;5040734;28;20289;-69
2022/06/10 04:20:40;;;;;;;9.03;7.60;;;;;;;21.18;53.01;101680.53;5040799;28;20448;-69
2022/06/10 04:23:06;;;;;;;13.27;8.03;;;;;;;20.89;52.94;101682.88;5040406;28;20420;-68
2022/06/10 04:25:33;;;;;;;10.23;7.77;;;;;;;20.83;53.42;101676.78;5048337;28;20823;-68
2022/06/10 04:28:00;;;;;;;9.73;8.03;;;;;;;21.01;53.26;101688.84;5039669;28;20475;-68
2022/06/10 04:30:28;;;;;;;10.20;7.83;;;;;;;;;;5040225;28;20455;-68
2022/06/10 04:32:54;;;;;;;10.50;8.33;;;;;;;21.17;51.90;101689.41;5040050;28;20193;-68
2022/06/10 04:35:20;;;;;;;12.83;7.73;;;;;;;21.96;50.49;101689.56;5039814;28;20429;-70
2022/06/10 04:37:45;;;;;;;9.87;7.83;;;;;;;22.12;50.11;101688.31;5040800;28;20266;-70
2022/06/10 04:40:16;;;;;;;8.03;7.33;;;;;;;20.96;52.33;101695.09;5039947;28;20858;-70
2022/06/10 04:42:43;;;;;;;8.43;7.10;;;;;;;22.31;49.16;101679.88;5039730;28;20206;-71
2022/06/10 04:45:09;;;;;;;12.00;7.10;;;;;;;22.93;47.33;101684.53;5040427;28;20467;-70
2022/06/10 04:47:34;;;;;;;8.93;6.50;;;;;;;23.50;46.60;101684.75;5038533;28;20744;-71
2022/06/10 04:50:01;;;;;;;10.07;6.60;;;;;;;22.85;47.04;101687.41;5040041;28;20421;-71
2022/06/10 04:52:29;;;;;;;11.33;6.03;;;;;;;21.85;48.64;101685.38;5039029;28;20185;-71
2022/06/10 04:54:55;;;;;;;8.70;6.50;;;;;;;22.41;48.20;101691.19;5039443;28;20506;-72
2022/06/10 04:57:21;;;;;;;7.17;6.00;;;;;;;22.53;47.75;101691.75;5039672;28;20469;-71
2022/06/10 04:59:46;;;;;;;8.27;5.93;;;;;;;22.87;47.06;101692.69;5039612;28;20541;-71
2022/06/10 05:02:12;;;;;;;7.60;5.87;;;;;;;22.75;46.75;101693.88;5038952;28;20175;-70
2022/06/10 05:04:37;;;;;;;8.40;5.60;;;;;;;22.57;47.38;101699.66;5039738;28;20516;-70
2022/06/10 05:07:03;;;;;;;10.93;5.80;;;;;;;23.12;45.98;101699.97;5039965;28;20185;-72
2022/06/10 05:09:29;;;;;;;6.73;5.20;;;;;;;23.74;45.26;101695.59;5039651;28;20170;-71
2022/06/10 05:11:54;;;;;;;9.27;5.33;;;;;;;23.76;44.97;101696.41;5039656;28;20717;-72
2022/06/10 05:14:20;;;;;;;9.67;5.00;;;;;;;24.23;43.34;101699.38;5039719;28;20190;-72
2022/06/10 05:16:46;;;;;;;7.27;5.30;;;;;;;23.67;44.80;101702.88;5039416;28;20425;-72
2022/06/10 05:19:11;;;;;;;7.87;4.70;;;;;;;23.71;44.15;101704.53;5039539;28;20444;-72
2022/06/10 05:21:37;;;;;;;11.27;5.30;;;;;;;24.62;42.43;101699.03;5040140;28;20170;-76
2022/06/10 05:24:02;;;;;;;7.47;4.90;;;;;;;24.89;41.04;101709.66;5038566;28;20174;-74
2022/06/10 05:26:29;;;;;;;7.57;4.80;;;;;;;24.10;42.82;101709.59;5039212;28;20174;-74
2022/06/10 05:28:55;;;;;;;6.83;4.93;;;;;;;25.25;41.04;101711.06;5039545;28;20246;-73
2022/06/10 05:31:21;;;;;;;8.00;5.33;;;;;;;24.61;41.26;101701.72;5039051;28;20429;-73
2022/06/10 05:36:30;;;;;;;7.40;4.80;;;;;;;24.81;40.96;101707.25;5038378;28;20532;-74
2022/06/10 05:38:56;;;;;;;6.50;4.17;;;;;;;25.98;39.10;101701.19;5039132;28;20448;-73
2022/06/10 05:44:06;;;;;;;8.10;4.60;;;;;;;25.53;39.57;101711.81;5039283;28;20200;-71
2022/06/10 05:46:31;;;;;;;6.67;4.43;;;;;;;25.88;38.54;101709.59;5039014;28;20427;-71
2022/06/10 05:48:57;;;;;;;5.70;4.50;;;;;;;26.60;37.81;101710.25;5038953;28;20417;-72
2022/06/10 05:51:22;;;;;;;6.00;4.70;;;;;;;26.45;37.19;101717.13;5039135;28;20224;-76
2022/06/10 05:53:47;;;;;;;7.30;3.73;;;;;;;25.52;38.38;101714.56;5038686;28;20170;-72
2022/06/10 05:56:13;;;;;;;6.33;4.17;;;;;;;25.83;37.51;101716.91;5038565;28;20202;-72
2022/06/10 05:58:38;;;;;;;5.57;4.37;;;;;;;26.41;37.00;101722.69;5038675;28;20190;-71
2022/06/10 06:01:03;;;;;;;7.77;3.93;;;;;;;26.56;36.69;101716.66;5038910;28;20169;-71
2022/06/10 06:03:29;;;;;;;5.33;3.53;;;;;;;26.67;36.26;101724.25;5038566;28;20177;-72
2022/06/10 06:05:54;;;;;;;5.93;4.20;;;;;;;26.35;36.81;101726.47;5038809;28;20573;-70
2022/06/10 06:08:19;;;;;;;6.43;3.83;;;;;;;26.69;36.41;101733.09;5037769;28;20185;-70
2022/06/10 06:10:45;;;;;;;7.83;4.33;;;;;;;27.19;35.28;101724.69;5038430;28;20619;-70
2022/06/10 06:13:10;;;;;;;7.13;4.60;;;;;;;26.15;36.01;101728.13;5038747;28;20198;-70
2022/06/10 06:15:38;;;;;;;5.50;3.80;;;;;;;26.77;35.74;101733.66;5038390;28;20230;-70
2022/06/10 06:18:05;;;;;;;4.73;3.70;;;;;;;26.69;36.36;101722.38;5037487;28;20263;-75
2022/06/10 06:20:30;;;;;;;8.43;4.30;;;;;;;27.24;34.92;101729.84;5038554;28;20428;-75
2022/06/10 06:22:55;;;;;;;7.10;3.70;;;;;;;26.27;36.34;101736.63;5037645;28;20432;-74
2022/06/10 06:25:21;;;;;;;6.70;3.80;;;;;;;27.42;34.99;101724.63;5037409;28;20312;-74
2022/06/10 06:27:48;;;;;;;9.50;4.30;;;;;;;26.98;34.84;101730.97;5038750;28;20185;-75
2022/06/10 06:30:21;;;;;;;4.70;3.67;;;;;;;26.24;35.59;101726.91;5038293;28;20437;-75
2022/06/10 06:32:47;;;;;;;5.67;3.80;;;;;;;27.15;34.06;101731.09;5038096;28;20675;-74
2022/06/10 06:35:13;;;;;;;6.97;3.87;;;;;;;26.61;34.53;101732.53;5038117;28;20409;-77
2022/06/10 06:37:39;;;;;;;8.43;3.50;;;;;;;27.48;33.32;101740.41;5038433;28;20694;-75
2022/06/10 06:40:05;;;;;;;3.90;3.40;;;;;;;27.42;32.97;101738.88;5038363;28;20178;-74
2022/06/10 06:42:30;;;;;;;6.27;3.40;;;;;;;26.80;34.15;101741.53;5038061;28;20421;-72
2022/06/10 06:44:55;;;;;;;5.87;3.50;;;;;;;28.29;32.06;101733.00;5038034;28;20445;-72
2022/06/10 06:47:21;;;;;;;6.00;3.20;;;;;;;27.69;32.64;101730.50;5037799;28;20415;-74
2022/06/10 06:49:46;;;;;;;5.30;3.57;;;;;;;28.79;31.58;101725.19;5037163;28;20188;-73
2022/06/10 06:52:12;;;;;;;4.30;3.20;;;;;;;28.31;31.92;101735.63;5037074;28;20198;-74
2022/06/10 06:54:37;;;;;;;10.97;3.90;;;;;;;29.03;31.25;101731.97;5038276;28;20166;-75
2022/06/10 06:57:03;;;;;;;7.57;3.67;;;;;;;28.59;30.94;101731.56;5037622;28;20279;-74
2022/06/10 06:59:29;;;;;;;4.93;3.10;;;;;;;28.03;32.05;101734.28;5037473;28;20180;-75
2022/06/10 07:01:55;;;;;;;5.20;3.43;;;;;;;28.02;31.76;101745.94;5038324;28;20409;-75
2022/06/10 07:04:20;;;;;;;6.50;3.37;;;;;;;27.49;33.35;101744.81;5037738;28;20178;-74
2022/06/10 07:06:45;;;;;;;5.87;4.27;;;;;;;28.61;31.63;101738.59;5037806;28;20178;-73
2022/06/10 07:09:11;;;;;;;3.80;2.90;;;;;;;27.96;31.63;101738.19;5038517;28;20249;-72
2022/06/10 07:11:38;;;;;;;7.30;3.20;;;;;;;29.27;30.11;101745.09;5041344;28;20437;-74
2022/06/10 07:14:04;;;;;;;5.93;3.40;;;;;;;28.77;30.50;101738.69;5041679;28;20280;-75
2022/06/10 07:16:29;;;;;;;3.70;3.03;;;;;;;29.10;30.51;101747.75;5041869;28;20548;-75
2022/06/10 07:18:55;;;;;;;4.37;3.10;;;;;;;28.68;31.04;101752.59;5041771;28;20205;-75
2022/06/10 07:21:20;;;;;;;6.90;3.30;;;;;;;27.17;32.82;101766.72;5041760;28;20189;-75
2022/06/10 07:23:46;;;;;;;4.07;3.30;;;;;;;28.97;30.56;101759.16;5041842;28;20524;-74
2022/06/10 07:26:11;;;;;;;6.60;3.60;;;;;;;28.27;31.31;101764.41;5040745;28;20174;-74
2022/06/10 07:28:37;;;;;;;5.40;3.27;;;;;;;29.30;29.68;101752.97;5041519;28;20190;-74
2022/06/10 07:31:03;;;;;;;5.33;3.40;;;;;;;28.72;30.51;101764.91;5041975;28;20210;-74
2022/06/10 07:33:28;;;;;;;6.47;3.20;;;;;;;28.65;30.13;101750.94;5041208;28;20228;-74
2022/06/10 07:35:54;;;;;;;5.27;3.27;;;;;;;29.07;29.61;101744.28;5041134;28;20241;-74
2022/06/10 07:38:20;;;;;;;3.67;2.87;;;;;;;29.74;28.13;101751.47;5042285;28;20220;-75
2022/06/10 07:43:31;;;;;;;5.17;3.23;;;;;;;29.36;28.08;101747.28;5041665;28;20192;-77
2022/06/10 07:45:58;;;;;;;3.70;2.90;;;;;;;28.83;29.37;101741.06;5041744;28;20413;-75
2022/06/10 07:48:23;;;;;;;4.87;3.17;;;;;;;29.30;28.46;101749.44;5041171;28;20412;-74
2022/06/10 07:50:49;;;;;;;5.27;3.23;;;;;;;28.94;28.48;101748.53;5041472;28;20499;-74
2022/06/10 07:53:15;;;;;;;3.47;3.10;;;;;;;29.52;28.14;101744.59;5041003;28;20590;-75
2022/06/10 07:55:42;;;;;;;6.80;3.40;;;;;;;29.43;29.03;101750.50;5041319;28;20320;-75
2022/06/10 07:58:07;;;;;;;7.07;3.40;;;;;;;29.61;28.14;101745.09;5041538;28;20409;-75
2022/06/10 08:00:34;;;;;;;5.63;3.30;;;;;;;28.61;29.96;101743.94;5040861;28;20474;-73
2022/06/10 08:03:00;;;;;;;5.00;3.23;;;;;;;30.41;28.29;101737.88;5040821;28;20252;-72
2022/06/10 08:05:26;;;;;;;7.10;3.50;;;;;;;29.42;28.97;101742.50;5041436;28;20412;-72
2022/06/10 08:07:51;;;;;;;5.87;3.20;;;;;;;28.88;30.50;101738.16;5040765;28;20425;-72
2022/06/10 08:10:29;;;;;;;6.87;3.67;;;;;;;30.86;27.25;101735.25;5040891;28;20205;-72
2022/06/10 08:12:54;;;;;;;5.57;3.10;;;;;;;30.22;27.40;101733.56;5040548;28;20198;-78
2022/06/10 08:15:21;;;;;;;8.00;3.40;;;;;;;30.46;27.91;101729.56;5040834;28;20421;-76
2022/06/10 08:17:46;;;;;;;6.17;3.37;;;;;;;29.85;28.16;101729.38;5040591;28;20234;-74
2022/06/10 08:20:21;;;;;;;4.40;3.17;;;;;;;30.42;26.11;101728.84;5040369;28;20439;-73
2022/06/10 08:22:47;;;;;;;7.50;3.07;;;;;;;29.80;27.35;101737.72;5039792;28;20185;-75
2022/06/10 08:25:14;;;;;;;4.67;3.20;;;;;;;29.52;28.01;101731.16;5039816;28;20433;-76
2022/06/10 08:27:39;;;;;;;5.17;3.33;;;;;;;29.57;27.65;101729.09;5040108;28;20205;-75
2022/06/10 08:30:09;;;;;;;4.00;3.17;;;;;;;29.46;27.34;101725.25;5040654;28;20441;-74
2022/06/10 08:32:34;;;;;;;7.13;3.23;;;;;;;29.60;27.30;101724.53;5037138;28;20556;-75
2022/06/10 08:34:59;;;;;;;5.20;3.80;;;;;;;30.19;27.15;101724.81;5040413;28;20431;-76
2022/06/10 08:37:25;;;;;;;7.77;3.50;;;;;;;30.33;25.53;101721.31;5040446;28;20210;-75
2022/06/10 08:39:50;;;;;;;6.17;3.43;;;;;;;30.43;25.77;101718.94;5040290;28;20185;-75
2022/06/10 08:42:34;;;;;;;4.10;3.00;;;;;;;31.07;25.77;101719.66;5040077;28;20174;-75
2022/06/10 08:45:15;;;;;;;5.60;3.33;;;;;;;30.20;26.11;101729.22;5039528;28;20170;-74
2022/06/10 08:47:43;;;;;;;7.60;3.80;;;;;;;29.83;27.07;101723.25;5039955;28;20507;-75
2022/06/10 08:50:27;;;;;;;6.67;4.03;;;;;;;30.32;26.69;101722.28;5039911;28;20448;-79
2022/06/10 08:53:18;;;;;;;5.20;3.63;;;;;;;30.34;26.25;101720.38;5040050;28;20407;-72
2022/06/10 08:56:03;;;;;;;8.37;3.80;;;;;;;28.49;29.58;101723.97;5038860;28;20468;-72
2022/06/10 08:58:36;;;;;;;5.23;3.87;;;;;;;28.29;30.30;101722.28;5039278;28;20849;-73
2022/06/10 09:01:05;;;;;;;7.40;4.30;;;;;;;26.62;32.10;101724.44;5039478;28;20417;-73
2022/06/10 09:03:42;;;;;;;8.00;4.70;;;;;;;27.51;30.87;101722.38;5038987;28;20500;-73
2022/06/10 09:06:20;;;;;;;8.10;4.33;;;;;;;27.47;31.60;101727.94;5038800;28;20427;-74
2022/06/10 09:08:49;;;;;;;7.23;4.10;;;;;;;28.49;30.16;101718.59;5039174;28;20436;-73
2022/06/10 09:11:37;;;;;;;7.83;4.90;;;;;;;29.70;28.30;101714.97;5038899;28;20447;-72
2022/06/10 09:14:03;;;;;;;5.53;4.37;;;;;;;29.35;28.74;101712.41;5038722;28;20523;-73
2022/06/10 09:16:45;;;;;;;6.60;4.07;;;;;;;28.85;29.15;101714.16;5039392;28;20460;-72
2022/06/10 09:19:29;;;;;;;9.77;5.20;;;;;;;27.22;31.61;101724.56;5039516;28;20208;-76
2022/06/10 09:22:22;;;;;;;4.63;4.13;;;;;;;28.62;29.87;101702.75;5039141;28;20405;-77
2022/06/10 09:24:55;;;;;;;6.03;4.10;;;;;;;27.46;31.56;101715.50;5039414;28;20433;-74
2022/06/10 09:27:33;;;;;;;5.10;4.37;;;;;;;30.53;28.33;101698.66;5038547;28;20413;-74
2022/06/10 09:30:03;;;;;;;7.27;4.20;;;;;;;30.57;27.87;101706.44;5039116;28;20421;-73
2022/06/10 09:32:53;;;;;;;7.90;4.20;;;;;;;29.96;28.75;101710.00;5037525;28;20413;-72
2022/06/10 09:36:16;;;;;;;6.30;4.20;;;;;;;29.64;28.96;101702.75;5039076;28;20405;-72
2022/06/10 09:38:45;;;;;;;4.30;3.90;;;;;;;30.60;27.44;101701.84;5017380;28;20426;-73
2022/06/10 09:41:39;;;;;;;6.93;4.40;;;;;;;28.17;29.58;101714.84;5018060;28;20418;-72
2022/06/10 09:44:04;;;;;;;7.97;4.40;;;;;;;26.74;32.10;101717.75;5034801;28;20445;-71
2022/06/10 09:46:35;;;;;;;6.87;4.73;;;;;;;26.47;33.03;101722.44;5039050;28;20507;-70
2022/06/10 09:49:03;;;;;;;8.50;5.27;;;;;;;28.54;30.68;101713.88;5038875;28;20185;-71
2022/06/10 09:52:03;;;;;;;6.30;4.60;;;;;;;28.52;29.73;101710.41;5038959;28;20428;-71
2022/06/10 09:54:53;;;;;;;5.93;4.70;;;;;;;27.79;30.51;101710.34;5038588;28;20419;-71
2022/06/10 09:57:27;;;;;;;5.80;4.30;;;;;;;28.12;30.49;101698.09;5038418;28;20731;-73
2022/06/10 10:00:18;;;;;;;8.63;4.20;;;;;;;27.37;31.08;101706.06;5038638;28;20427;-72
2022/06/10 10:03:11;;;;;;;9.23;4.40;;;;;;;26.75;32.02;101705.22;5038691;28;20696;-73
2022/06/10 10:05:47;;;;;;;7.37;4.90;;;;;;;27.09;31.39;101711.78;5038625;28;20413;-74
2022/06/10 10:08:17;;;;;;;4.50;3.80;;;;;;;26.30;32.83;101710.59;5038557;28;20413;-75
2022/06/10 10:10:48;;;;;;;7.10;4.37;;;;;;;26.52;33.00;101707.94;5038682;28;20827;-74
2022/06/10 10:13:32;;;;;;;6.60;5.03;;;;;;;26.41;33.72;101720.00;5037951;28;20441;-75
2022/06/10 10:16:02;;;;;;;7.67;5.10;;;;;;;24.93;35.58;101723.78;5038366;28;20719;-73
2022/06/10 10:18:46;;;;;;;5.23;4.73;;;;;;;25.30;35.44;101714.44;5038290;28;20553;-73
2022/06/10 10:21:11;;;;;;;7.03;5.10;;;;;;;26.13;33.64;101707.75;5038563;28;20416;-73
2022/06/10 10:23:46;;;;;;;6.77;4.77;;;;;;;26.93;33.23;101699.09;5038208;28;20413;-73
2022/06/10 10:26:25;;;;;;;5.33;4.20;;;;;;;26.63;32.85;101699.44;5037542;28;20184;-73
2022/06/10 10:28:56;;;;;;;14.20;6.10;;;;;;;26.61;34.30;101705.78;5037425;28;20413;-74
2022/06/10 10:31:27;;;;;;;5.90;4.57;;;;;;;25.35;35.66;101699.16;5038316;28;20690;-72
2022/06/10 10:33:53;;;;;;;6.77;4.53;;;;;;;25.77;35.83;101689.56;5038230;28;20417;-74
2022/06/10 10:36:30;;;;;;;7.30;4.20;;;;;;;26.29;34.54;101698.19;5038387;28;20707;-73
2022/06/10 10:38:57;;;;;;;6.93;3.97;;;;;;;26.48;34.49;101692.94;5038042;28;20426;-75
2022/06/10 10:41:28;;;;;;;6.97;5.53;;;;;;;26.14;33.45;101689.00;5038127;28;20432;-73
2022/06/10 10:43:57;;;;;;;6.93;4.30;;;;;;;26.49;32.80;101688.47;5037953;28;20539;-72
2022/06/10 10:46:22;;;;;;;8.00;4.30;;;;;;;28.37;30.39;101681.69;5037766;28;20439;-71
2022/06/10 10:48:48;;;;;;;7.50;4.00;;;;;;;27.36;31.89;101686.47;5038478;28;20425;-78
2022/06/10 10:51:13;;;;;;;7.40;5.03;;;;;;;26.02;33.51;101684.09;5037727;28;20182;-72
2022/06/10 10:53:46;;;;;;;8.03;5.60;;;;;;;27.39;32.61;101680.97;5037444;28;20178;-72
2022/06/10 10:56:13;;;;;;;6.07;4.00;;;;;;;28.25;30.41;101676.94;5038072;28;20209;-73
2022/06/10 10:58:50;;;;;;;5.33;4.07;;;;;;;27.61;31.37;101679.09;5036759;28;20412;-72
2022/06/10 11:01:43;;;;;;;5.20;3.80;;;;;;;26.32;32.82;101691.88;5037658;28;20508;-74
2022/06/10 11:04:11;;;;;;;5.50;4.20;;;;;;;26.87;32.40;101686.84;5036801;28;20424;-74
2022/06/10 11:06:37;;;;;;;8.33;4.77;;;;;;;26.08;33.51;101688.38;5037621;28;20663;-74
2022/06/10 11:09:23;;;;;;;6.67;4.90;;;;;;;25.78;35.27;101689.50;5037999;28;20413;-73
2022/06/10 11:11:50;;;;;;;8.07;4.73;;;;;;;24.97;35.76;101699.59;5037788;28;20419;-74
2022/06/10 11:14:35;;;;;;;5.50;4.83;;;;;;;26.24;34.20;101694.84;5036780;28;20463;-71
2022/06/10 11:17:13;;;;;;;6.00;5.30;;;;;;;26.55;32.33;101690.88;5036886;28;20767;-72
2022/06/10 11:20:20;;;;;;;5.40;4.43;;;;;;;25.43;33.83;101685.53;5037471;28;20806;-72
2022/06/10 11:22:46;;;;;;;7.53;4.50;;;;;;;25.37;34.42;101686.59;5036358;28;20437;-72
2022/06/10 11:25:17;;;;;;;8.10;4.90;;;;;;;25.47;35.15;101681.81;5037719;28;20513;-74
2022/06/10 11:27:48;;;;;;;5.30;4.47;;;;;;;25.21;35.79;101680.97;5037582;28;20170;-73
2022/06/10 11:30:13;;;;;;;7.93;4.50;;;;;;;25.74;34.97;101682.56;5038222;28;20421;-74
2022/06/10 11:32:51;;;;;;;5.17;4.47;;;;;;;25.65;35.09;101680.22;5037430;28;20479;-76
2022/06/10 11:35:38;;;;;;;5.03;4.13;;;;;;;25.78;34.27;101681.50;5037497;28;20180;-75
2022/06/10 11:38:17;;;;;;;5.40;4.67;;;;;;;25.01;36.27;101685.22;5037290;28;20482;-77
2022/06/10 11:40:54;;;;;;;8.13;5.00;;;;;;;25.06;36.39;101685.06;5037531;28;20417;-73
2022/06/10 11:43:30;;;;;;;5.53;4.30;;;;;;;25.08;37.42;101669.84;5037452;28;20420;-66
2022/06/10 11:46:04;;;;;;;5.87;4.30;;;;;;;25.68;35.56;101672.09;5037430;28;20814;-66
2022/06/10 11:48:43;;;;;;;5.70;4.20;;;;;;;26.11;35.43;101673.06;5037387;28;20420;-66
2022/06/10 11:51:30;;;;;;;5.30;4.10;;;;;;;26.53;34.55;101669.56;5036748;28;20452;-65